createdAt,value
2022-10-28T00:02:22.844Z,15.36
2022-10-28T00:05:24.651Z,15.13
2022-10-28T00:08:26.442Z,14.70
2022-10-28T00:11:32.279Z,14.19
2022-10-28T00:14:34.074Z,13.85
2022-10-28T00:17:35.876Z,13.91
2022-10-28T00:20:37.670Z,14.57
2022-10-28T00:23:39.720Z,14.60
2022-10-28T00:26:45.969Z,14.43
2022-10-28T00:29:47.798Z,14.59
2022-10-28T00:32:49.845Z,15.10
2022-10-28T00:35:51.701Z,15.02
2022-10-28T00:38:53.889Z,14.67
2022-10-28T00:41:57.969Z,15.68
2022-10-28T00:45:00.485Z,14.56
2022-10-28T00:48:02.848Z,14.44
2022-10-28T00:51:05.357Z,14.44
2022-10-28T00:54:07.128Z,14.11
2022-10-28T00:57:10.277Z,14.20
2022-10-28T01:00:12.480Z,14.44
2022-10-28T01:03:15.161Z,14.25
2022-10-28T01:06:16.985Z,15.02
2022-10-28T01:09:18.927Z,14.96
2022-10-28T01:12:29.491Z,15.06
2022-10-28T01:15:38.309Z,13.93
2022-10-28T01:18:43.005Z,15.44
2022-10-28T01:22:03.240Z,15.65
2022-10-28T01:25:14.179Z,16.01
2022-10-28T01:28:18.969Z,14.76
2022-10-28T01:31:20.730Z,14.73
2022-10-28T01:34:42.308Z,14.49
2022-10-28T01:37:57.128Z,14.62
2022-10-28T01:41:11.214Z,14.61
2022-10-28T01:44:25.118Z,14.27
2022-10-28T01:47:28.840Z,14.51
2022-10-28T01:50:38.107Z,14.20
2022-10-28T01:53:41.781Z,13.91
2022-10-28T01:56:43.910Z,14.30
2022-10-28T01:59:45.812Z,13.80
2022-10-28T02:02:47.683Z,13.96
2022-10-28T02:05:52.775Z,13.53
2022-10-28T02:09:13.426Z,13.72
2022-10-28T02:12:25.786Z,14.18
2022-10-28T02:15:53.993Z,15.37
2022-10-28T02:18:55.760Z,13.74
2022-10-28T02:22:15.739Z,14.34
2022-10-28T02:25:17.579Z,13.85
2022-10-28T02:28:21.883Z,14.48
2022-10-28T02:31:28.532Z,14.46
2022-10-28T02:34:39.935Z,14.87
2022-10-28T02:37:42.334Z,15.15
2022-10-28T02:40:44.571Z,15.42
2022-10-28T02:43:46.417Z,15.12
2022-10-28T02:46:48.711Z,14.79
2022-10-28T02:49:52.350Z,14.92
2022-10-28T02:52:55.544Z,13.83
2022-10-28T02:55:57.523Z,13.95
2022-10-28T02:58:59.306Z,13.79
2022-10-28T03:02:01.407Z,14.32
2022-10-28T03:05:04.091Z,13.92
2022-10-28T03:08:05.866Z,13.89
2022-10-28T03:11:07.686Z,14.01
2022-10-28T03:14:11.893Z,14.25
2022-10-28T03:17:16.429Z,14.91
2022-10-28T03:20:18.233Z,15.42
2022-10-28T03:23:20.005Z,14.74
2022-10-28T03:26:21.836Z,15.48
2022-10-28T03:29:23.615Z,14.67
2022-10-28T03:32:25.421Z,15.11
2022-10-28T03:35:27.213Z,15.97
2022-10-28T03:38:29.085Z,16.09
2022-10-28T03:41:30.962Z,15.50
2022-10-28T03:44:32.763Z,15.95
2022-10-28T03:47:34.818Z,15.53
2022-10-28T03:50:36.595Z,14.84
2022-10-28T03:53:38.425Z,15.02
2022-10-28T03:56:40.652Z,14.38
2022-10-28T03:59:42.488Z,14.50
2022-10-28T04:02:49.350Z,14.55
2022-10-28T04:05:51.289Z,14.85
2022-10-28T04:08:53.175Z,14.81
2022-10-28T04:11:55.049Z,14.60
2022-10-28T04:14:56.950Z,14.79
2022-10-28T04:17:58.749Z,15.11
2022-10-28T04:21:00.525Z,14.85
2022-10-28T04:24:02.333Z,15.43
2022-10-28T04:27:04.145Z,14.06
2022-10-28T04:30:06.289Z,13.87
2022-10-28T04:33:08.880Z,13.74
2022-10-28T04:36:10.674Z,14.46
2022-10-28T04:39:12.481Z,14.65
2022-10-28T04:42:14.329Z,14.87
2022-10-28T04:45:16.143Z,13.68
2022-10-28T04:48:17.963Z,13.97
2022-10-28T04:51:19.746Z,14.12
2022-10-28T04:54:21.600Z,13.46
2022-10-28T04:57:23.381Z,13.44
2022-10-28T05:00:25.569Z,14.17
2022-10-28T05:03:27.347Z,15.05
2022-10-28T05:06:29.162Z,15.36
2022-10-28T05:09:30.969Z,14.89
2022-10-28T05:12:32.768Z,15.31
2022-10-28T05:15:34.556Z,15.53
2022-10-28T05:18:36.399Z,15.13
2022-10-28T05:21:38.255Z,14.77
2022-10-28T05:24:40.299Z,15.24
2022-10-28T05:27:42.160Z,13.63
2022-10-28T05:30:44.082Z,14.58
2022-10-28T05:33:45.937Z,15.01
2022-10-28T05:36:47.871Z,15.22
2022-10-28T05:39:49.689Z,15.19
2022-10-28T05:42:51.776Z,14.75
2022-10-28T05:45:57.042Z,14.56
2022-10-28T05:48:58.882Z,14.81
2022-10-28T05:52:00.677Z,15.22
2022-10-28T05:55:02.480Z,14.86
2022-10-28T05:58:04.372Z,15.25
2022-10-28T06:01:06.812Z,14.61
2022-10-28T06:04:08.841Z,14.77
2022-10-28T06:07:10.797Z,15.23
2022-10-28T06:10:12.647Z,15.38
2022-10-28T06:13:12.940Z,15.44
2022-10-28T06:16:14.777Z,15.45
2022-10-28T06:19:16.586Z,15.25
2022-10-28T06:22:18.408Z,15.40
2022-10-28T06:25:20.661Z,15.13
2022-10-28T06:28:22.741Z,15.05
2022-10-28T06:31:24.625Z,15.15
2022-10-28T06:34:26.566Z,15.14
2022-10-28T06:37:28.425Z,14.47
2022-10-28T06:40:30.318Z,15.07
2022-10-28T06:43:32.214Z,15.05
2022-10-28T06:46:35.632Z,14.97
2022-10-28T06:49:37.541Z,15.28
2022-10-28T06:52:39.494Z,14.39
2022-10-28T06:55:41.380Z,14.21
2022-10-28T06:58:43.431Z,15.28
2022-10-28T07:01:45.549Z,15.64
2022-10-28T07:04:47.514Z,15.74
2022-10-28T07:07:49.994Z,15.71
2022-10-28T07:10:58.558Z,15.33
2022-10-28T07:14:00.361Z,15.71
2022-10-28T07:17:02.630Z,15.64
2022-10-28T07:20:04.616Z,15.78
2022-10-28T07:23:06.451Z,15.81
2022-10-28T07:26:08.397Z,15.79
2022-10-28T07:29:10.384Z,15.62
2022-10-28T07:32:12.192Z,15.36
2022-10-28T07:35:14.055Z,14.65
2022-10-28T07:38:16.026Z,14.12
2022-10-28T07:41:18.132Z,15.35
2022-10-28T07:44:19.990Z,15.65
2022-10-28T07:47:22.354Z,15.37
2022-10-28T07:50:24.273Z,15.59
2022-10-28T07:53:28.640Z,15.36
2022-10-28T07:56:30.858Z,15.30
2022-10-28T07:59:32.902Z,15.57
2022-10-28T08:02:34.744Z,15.75
2022-10-28T08:05:36.665Z,15.71
2022-10-28T08:08:38.710Z,15.30
2022-10-28T08:11:40.765Z,15.37
2022-10-28T08:14:42.673Z,15.64
2022-10-28T08:17:44.521Z,15.53
2022-10-28T08:20:46.381Z,15.61
2022-10-28T08:23:48.335Z,15.70
2022-10-28T08:26:50.221Z,15.74
2022-10-28T08:29:54.071Z,15.66
2022-10-28T08:32:56.246Z,15.24
2022-10-28T08:35:58.366Z,14.50
2022-10-28T08:39:01.679Z,15.34
2022-10-28T08:42:19.830Z,15.28
2022-10-28T08:45:30.901Z,15.15
2022-10-28T08:48:35.929Z,14.84
2022-10-28T08:51:56.309Z,15.76
2022-10-28T08:55:17.566Z,14.47
2022-10-28T08:58:24.850Z,15.66
2022-10-28T09:01:39.299Z,15.38
2022-10-28T09:04:44.935Z,15.28
2022-10-28T09:07:46.745Z,15.50
2022-10-28T09:10:53.375Z,15.30
2022-10-28T09:14:01.305Z,15.45
2022-10-28T09:17:03.227Z,15.49
2022-10-28T09:20:26.219Z,16.13
2022-10-28T09:23:32.500Z,16.05
2022-10-28T09:26:37.594Z,15.90
2022-10-28T09:29:45.197Z,15.73
2022-10-28T09:33:07.253Z,16.35
2022-10-28T09:36:11.586Z,15.48
2022-10-28T09:39:14.992Z,15.61
2022-10-28T09:42:22.433Z,15.33
2022-10-28T09:45:25.811Z,16.16
2022-10-28T09:48:28.720Z,16.39
2022-10-28T09:51:33.673Z,14.61
2022-10-28T09:54:40.145Z,15.03
2022-10-28T09:57:41.994Z,15.87
2022-10-28T10:00:43.954Z,15.04
2022-10-28T10:03:49.116Z,15.43
2022-10-28T10:06:52.478Z,16.31
2022-10-28T10:09:55.902Z,15.17
2022-10-28T10:12:59.489Z,15.19
2022-10-28T10:16:13.208Z,16.00
2022-10-28T10:19:15.180Z,14.60
2022-10-28T10:22:36.283Z,15.90
2022-10-28T10:25:38.141Z,15.46
2022-10-28T10:28:44.057Z,16.56
2022-10-28T10:31:46.167Z,16.46
2022-10-28T10:35:06.992Z,16.66
2022-10-28T10:38:13.910Z,16.37
2022-10-28T10:41:34.403Z,16.41
2022-10-28T10:44:36.323Z,16.66
2022-10-28T10:47:38.252Z,16.74
2022-10-28T10:50:40.591Z,16.63
2022-10-28T10:53:46.157Z,16.15
2022-10-28T10:56:48.380Z,15.83
2022-10-28T10:59:52.523Z,15.61
2022-10-28T11:02:55.952Z,16.33
2022-10-28T11:06:22.507Z,16.35
2022-10-28T11:09:32.788Z,15.27
2022-10-28T11:12:38.933Z,14.58
2022-10-28T11:15:40.749Z,15.66
2022-10-28T11:18:43.867Z,16.10
2022-10-28T11:21:50.803Z,15.75
2022-10-28T11:24:52.697Z,16.08
2022-10-28T11:28:11.645Z,14.98
2022-10-28T11:31:13.468Z,16.18
2022-10-28T11:34:21.135Z,15.79
2022-10-28T11:37:38.338Z,15.83
2022-10-28T11:40:40.706Z,15.58
2022-10-28T11:43:53.613Z,15.33
2022-10-28T11:47:06.878Z,16.66
2022-10-28T11:50:20.859Z,16.73
2022-10-28T11:53:37.140Z,15.62
2022-10-28T11:56:39.862Z,15.14
2022-10-28T12:00:00.477Z,15.96
2022-10-28T12:03:05.659Z,15.88
2022-10-28T12:06:13.730Z,15.56
2022-10-28T12:09:35.885Z,15.31
2022-10-28T12:12:41.156Z,14.92
2022-10-28T12:15:46.105Z,15.13
2022-10-28T12:19:01.294Z,14.98
2022-10-28T12:22:05.831Z,15.41
2022-10-28T12:25:08.831Z,15.20
2022-10-28T12:31:25.892Z,14.61
2022-10-28T12:34:38.863Z,16.18
2022-10-28T12:37:44.748Z,16.18
2022-10-28T12:40:51.903Z,15.78
2022-10-28T12:44:02.216Z,15.38
2022-10-28T12:47:22.329Z,16.25
2022-10-28T12:50:33.346Z,16.29
2022-10-28T12:53:35.563Z,16.06
2022-10-28T12:56:38.196Z,16.21
2022-10-28T13:00:06.507Z,15.26
2022-10-28T13:03:11.447Z,16.25
2022-10-28T13:06:21.848Z,15.56
2022-10-28T13:09:23.642Z,16.36
2022-10-28T13:12:48.717Z,16.01
2022-10-28T13:15:53.424Z,16.47
2022-10-28T13:19:21.511Z,15.21
2022-10-28T13:22:46.027Z,15.27
2022-10-28T13:26:06.173Z,15.90
2022-10-28T13:29:08.162Z,15.44
2022-10-28T13:32:28.184Z,15.86
2022-10-28T13:35:29.968Z,16.34
2022-10-28T13:38:31.819Z,16.46
2022-10-28T13:41:37.396Z,16.28
2022-10-28T13:44:49.704Z,15.92
2022-10-28T13:47:51.610Z,14.99
2022-10-28T13:51:05.550Z,16.09
2022-10-28T13:54:12.508Z,16.36
2022-10-28T13:57:23.745Z,15.56
2022-10-28T14:00:25.633Z,15.61
2022-10-28T14:03:27.560Z,15.69
2022-10-28T14:06:33.119Z,16.29
2022-10-28T14:09:35.257Z,15.11
2022-10-28T14:12:37.071Z,16.39
2022-10-28T14:15:38.887Z,16.52
2022-10-28T14:18:44.340Z,16.44
2022-10-28T14:21:47.943Z,15.76
2022-10-28T14:24:50.225Z,15.78
2022-10-28T14:27:52.283Z,16.43
2022-10-28T14:31:10.410Z,15.97
2022-10-28T14:34:12.163Z,15.49
2022-10-28T14:37:19.993Z,14.72
2022-10-28T14:40:24.656Z,15.43
2022-10-28T14:43:31.544Z,16.34
2022-10-28T14:46:54.725Z,16.16
2022-10-28T14:50:02.801Z,15.07
2022-10-28T14:53:05.532Z,15.61
2022-10-28T14:56:19.734Z,15.24
2022-10-28T14:59:24.886Z,16.18
2022-10-28T15:02:29.950Z,15.92
2022-10-28T15:05:32.440Z,14.92
2022-10-28T15:08:34.328Z,14.87
2022-10-28T15:11:36.200Z,15.73
2022-10-28T15:14:52.135Z,15.97
2022-10-28T15:17:54.232Z,14.81
2022-10-28T15:21:12.170Z,15.76
2022-10-28T15:24:13.992Z,15.55
2022-10-28T15:27:15.865Z,15.52
2022-10-28T15:30:23.704Z,16.04
2022-10-28T15:33:33.142Z,15.95
2022-10-28T15:36:35.018Z,16.16
2022-10-28T15:39:37.536Z,16.06
2022-10-28T15:42:41.204Z,16.41
2022-10-28T15:45:43.075Z,15.57
2022-10-28T15:48:44.860Z,16.03
2022-10-28T15:52:04.797Z,15.49
2022-10-28T15:55:18.925Z,14.96
2022-10-28T15:58:20.754Z,14.53
2022-10-28T16:01:30.534Z,15.24
2022-10-28T16:04:40.579Z,14.84
2022-10-28T16:07:45.344Z,15.66
2022-10-28T16:10:54.622Z,15.76
2022-10-28T16:13:56.430Z,15.73
2022-10-28T16:17:27.592Z,15.53
2022-10-28T16:20:29.460Z,14.61
2022-10-28T16:23:38.602Z,15.49
2022-10-28T16:26:40.424Z,15.45
2022-10-28T16:29:42.251Z,14.79
2022-10-28T16:32:44.671Z,15.25
2022-10-28T16:35:46.470Z,15.73
2022-10-28T16:38:48.307Z,15.59
2022-10-28T16:41:50.160Z,14.27
2022-10-28T16:44:52.149Z,14.99
2022-10-28T16:47:54.210Z,15.28
2022-10-28T16:50:59.736Z,15.86
2022-10-28T16:54:01.608Z,15.70
2022-10-28T16:57:03.540Z,15.54
2022-10-28T17:00:05.685Z,15.19
2022-10-28T17:03:07.599Z,14.92
2022-10-28T17:06:10.492Z,15.32
2022-10-28T17:09:12.326Z,15.77
2022-10-28T17:12:14.855Z,15.50
2022-10-28T17:15:16.755Z,14.88
2022-10-28T17:18:19.463Z,15.63
2022-10-28T17:21:21.317Z,15.15
2022-10-28T17:24:23.120Z,15.22
2022-10-28T17:27:24.969Z,15.52
2022-10-28T17:30:26.814Z,15.57
2022-10-28T17:33:28.987Z,16.23
2022-10-28T17:36:30.858Z,16.56
2022-10-28T17:39:32.686Z,16.21
2022-10-28T17:42:35.392Z,16.01
2022-10-28T17:45:37.265Z,15.90
2022-10-28T17:48:40.253Z,16.07
2022-10-28T17:51:42.080Z,15.93
2022-10-28T17:54:43.966Z,15.74
2022-10-28T17:57:45.780Z,15.97
2022-10-28T18:00:47.573Z,15.83
2022-10-28T18:03:49.825Z,15.44
2022-10-28T18:06:52.548Z,15.38
2022-10-28T18:09:54.323Z,15.09
2022-10-28T18:12:56.434Z,15.62
2022-10-28T18:16:04.723Z,15.78
2022-10-28T18:19:07.381Z,15.26
2022-10-28T18:22:09.174Z,15.66
2022-10-28T18:25:11.011Z,16.23
2022-10-28T18:28:12.784Z,16.13
2022-10-28T18:31:15.570Z,16.10
2022-10-28T18:34:17.499Z,16.31
2022-10-28T18:37:19.318Z,16.52
2022-10-28T18:40:21.134Z,15.10
2022-10-28T18:43:23.758Z,16.40
2022-10-28T18:46:25.849Z,16.40
2022-10-28T18:49:27.655Z,15.98
2022-10-28T18:52:29.472Z,15.86
2022-10-28T18:55:31.297Z,15.83
2022-10-28T18:58:33.217Z,15.10
2022-10-28T19:01:35.790Z,15.65
2022-10-28T19:04:37.670Z,15.51
2022-10-28T19:07:39.489Z,15.60
2022-10-28T19:10:41.436Z,15.74
2022-10-28T19:13:44.114Z,15.73
2022-10-28T19:16:45.881Z,15.66
2022-10-28T19:19:49.129Z,15.60
2022-10-28T19:22:51.018Z,15.26
2022-10-28T19:25:56.372Z,15.66
2022-10-28T19:28:58.196Z,15.60
2022-10-28T19:32:00.154Z,15.78
2022-10-28T19:35:01.984Z,15.59
2022-10-28T19:38:03.800Z,15.57
2022-10-28T19:41:06.798Z,15.14
2022-10-28T19:44:08.661Z,15.67
2022-10-28T19:47:10.507Z,14.51
2022-10-28T19:50:12.353Z,15.13
2022-10-28T19:53:14.137Z,15.88
2022-10-28T19:56:19.169Z,15.92
2022-10-28T19:59:21.910Z,15.23
2022-10-28T20:02:23.802Z,15.16
2022-10-28T20:05:25.672Z,15.82
2022-10-28T20:08:27.674Z,16.05
2022-10-28T20:11:31.678Z,16.16
2022-10-28T20:14:33.545Z,15.10
2022-10-28T20:17:35.387Z,15.93
2022-10-28T20:20:37.172Z,15.47
2022-10-28T20:23:39.348Z,15.47
2022-10-28T20:26:41.212Z,16.01
2022-10-28T20:29:43.008Z,15.93
2022-10-28T20:32:44.815Z,15.95
2022-10-28T20:35:46.594Z,15.21
2022-10-28T20:38:48.396Z,15.35
2022-10-28T20:41:51.100Z,15.96
2022-10-28T20:44:52.912Z,16.04
2022-10-28T20:47:54.719Z,15.73
2022-10-28T20:50:57.658Z,16.15
2022-10-28T20:53:59.555Z,14.85
2022-10-28T20:57:01.349Z,16.10
2022-10-28T21:00:03.840Z,16.04
2022-10-28T21:03:05.734Z,15.58
2022-10-28T21:06:07.811Z,15.69
2022-10-28T21:09:09.712Z,16.03
2022-10-28T21:12:11.527Z,15.14
2022-10-28T21:15:13.363Z,15.07
2022-10-28T21:18:15.249Z,14.77
2022-10-28T21:21:17.686Z,15.86
2022-10-28T21:24:19.545Z,15.77
2022-10-28T21:27:21.392Z,15.93
2022-10-28T21:30:23.369Z,15.52
2022-10-28T21:33:25.227Z,16.09
2022-10-28T21:36:27.095Z,14.97
2022-10-28T21:39:28.942Z,15.50
2022-10-28T21:42:30.748Z,16.32
2022-10-28T21:45:32.554Z,15.67
2022-10-28T21:48:34.722Z,15.37
2022-10-28T21:51:36.531Z,16.37
2022-10-28T21:54:38.433Z,15.90
2022-10-28T21:57:40.318Z,16.50
2022-10-28T22:00:43.036Z,16.04
2022-10-28T22:03:44.821Z,15.16
2022-10-28T22:09:49.407Z,15.65
2022-10-28T22:12:51.184Z,15.44
2022-10-28T22:15:56.873Z,16.13
2022-10-28T22:18:59.185Z,16.14
2022-10-28T22:22:00.995Z,15.37
2022-10-28T22:25:06.149Z,15.66
2022-10-28T22:28:11.224Z,14.61
2022-10-28T22:31:14.169Z,14.72
2022-10-28T22:34:15.979Z,16.32
2022-10-28T22:37:18.604Z,15.93
2022-10-28T22:40:20.385Z,16.16
2022-10-28T22:43:22.180Z,16.51
2022-10-28T22:46:25.948Z,16.48
2022-10-28T22:49:27.767Z,16.43
2022-10-28T22:52:29.563Z,16.42
2022-10-28T22:55:31.345Z,16.38
2022-10-28T22:58:33.151Z,15.91
2022-10-28T23:01:35.036Z,15.63
2022-10-28T23:04:36.952Z,16.18
2022-10-28T23:07:38.778Z,15.62
2022-10-28T23:10:40.720Z,15.80
2022-10-28T23:13:42.532Z,16.19
2022-10-28T23:16:44.309Z,16.20
2022-10-28T23:19:46.112Z,16.02
2022-10-28T23:22:47.997Z,15.53
2022-10-28T23:25:53.479Z,15.33
2022-10-28T23:28:56.398Z,15.34
2022-10-28T23:31:58.196Z,14.97
2022-10-28T23:35:00.031Z,14.57
2022-10-28T23:38:02.860Z,14.84
2022-10-28T23:41:05.443Z,14.59
2022-10-28T23:44:07.264Z,15.35
2022-10-28T23:47:09.088Z,15.93
2022-10-28T23:50:11.078Z,15.24
2022-10-28T23:53:12.932Z,15.13
2022-10-28T23:56:14.778Z,15.86
2022-10-28T23:59:16.621Z,16.15
